Time;durP1;ratioP1;P1;durP2;ratioP2;P2;SDS_P1;SDS_P2;PMS_P1;PMS_P2;Temp;Humidity;BMP_temperature;BMP_pressure;BME280_temperature;BME280_humidity;BME280_pressure;Samples;Min_cycle;Max_cycle;Signal;HPM_P1;HPM_P2
2023/05/09 00:01:47;;;;;;;;;;;;;;;5.49;58.95;102599.83;108725;1257;124590;-83
2023/05/09 00:04:15;;;;;;;;;;;;;;;5.47;59.03;102598.85;108978;1256;59862;-83
2023/05/09 00:06:42;;;;;;;;;;;;;;;5.46;59.16;102598.41;108880;1257;59845;-83
2023/05/09 00:09:08;;;;;;;;;;;;;;;5.45;59.31;102597.13;108895;1255;125692;-83
2023/05/09 00:11:35;;;;;;;;;;;;;;;5.43;59.35;102595.23;109040;1257;67069;-83
2023/05/09 00:14:02;;;;;;;;;;;;;;;5.42;59.28;102591.52;108732;1257;124601;-83
2023/05/09 00:16:31;;;;;;;;;;;;;;;5.41;59.34;102591.40;108695;1256;252214;-83
2023/05/09 00:18:58;;;;;;;;;;;;;;;5.39;59.35;102592.32;108944;1256;60221;-83
2023/05/09 00:21:27;;;;;;;;;;;;;;;5.37;59.41;102590.75;108756;1256;76267;-82
2023/05/09 00:23:53;;;;;;;;;;;;;;;5.36;59.40;102588.27;109031;1256;67060;-82
2023/05/09 00:26:21;;;;;;;;;;;;;;;5.34;59.46;102590.05;108705;1256;125034;-82
2023/05/09 00:28:48;;;;;;;;;;;;;;;5.33;59.46;102587.82;108931;1256;60829;-81
2023/05/09 00:31:15;;;;;;;;;;;;;;;5.31;59.53;102586.43;108709;1257;124554;-81
2023/05/09 00:33:42;;;;;;;;;;;;;;;5.28;59.60;102584.35;108929;1256;76092;-81
2023/05/09 00:36:08;;;;;;;;;;;;;;;5.26;59.56;102587.01;108870;1256;66153;-81
2023/05/09 00:38:35;;;;;;;;;;;;;;;5.24;59.69;102586.02;108695;1256;125155;-81
2023/05/09 00:41:02;;;;;;;;;;;;;;;5.22;59.74;102586.34;108843;1257;61199;-81
2023/05/09 00:43:29;;;;;;;;;;;;;;;5.20;59.71;102584.03;108823;1256;124227;-82
2023/05/09 00:45:56;;;;;;;;;;;;;;;5.17;59.98;102583.83;108917;1256;76021;-81
2023/05/09 00:48:23;;;;;;;;;;;;;;;5.13;59.93;102584.10;108795;1256;66003;-81
2023/05/09 00:50:51;;;;;;;;;;;;;;;5.11;60.03;102581.80;108516;1257;125166;-82
2023/05/09 00:53:19;;;;;;;;;;;;;;;5.08;60.15;102585.45;108882;1256;60210;-81
2023/05/09 00:55:46;;;;;;;;;;;;;;;5.06;60.30;102585.09;108567;1256;125096;-81
2023/05/09 00:58:13;;;;;;;;;;;;;;;5.03;60.33;102584.84;108941;1256;74438;-82
2023/05/09 01:00:40;;;;;;;;;;;;;;;5.00;60.33;102586.38;108783;1256;67093;-82
2023/05/09 01:03:07;;;;;;;;;;;;;;;4.98;60.38;102583.28;108778;1255;124529;-82
2023/05/09 01:05:43;;;;;;;;;;;;;;;4.96;60.52;102581.92;108711;1256;60173;-81
2023/05/09 01:08:20;;;;;;;;;;;;;;;4.94;60.39;102579.13;108669;1256;124803;-81
2023/05/09 01:10:53;;;;;;;;;;;;;;;4.92;60.52;102581.62;108760;1257;76055;-81
2023/05/09 01:13:28;;;;;;;;;;;;;;;4.90;60.64;102580.90;108718;1259;124731;-82
2023/05/09 01:16:00;;;;;;;;;;;;;;;4.86;60.67;102585.17;108897;1257;73052;-81
2023/05/09 01:18:46;;;;;;;;;;;;;;;4.84;60.68;102584.33;108821;1257;60202;-82
2023/05/09 01:21:15;;;;;;;;;;;;;;;4.83;60.79;102584.55;108726;1255;124061;-81
2023/05/09 01:23:45;;;;;;;;;;;;;;;4.80;60.81;102585.04;108720;1262;75949;-82
2023/05/09 01:26:20;;;;;;;;;;;;;;;4.78;60.94;102581.74;108779;1256;125246;-81
2023/05/09 01:29:06;;;;;;;;;;;;;;;4.76;61.01;102582.31;108806;1257;71380;-81
2023/05/09 01:31:33;;;;;;;;;;;;;;;4.74;60.99;102582.11;108892;1256;125605;-82
2023/05/09 01:34:00;;;;;;;;;;;;;;;4.71;61.23;102579.14;108861;1257;60650;-81
2023/05/09 01:36:29;;;;;;;;;;;;;;;4.70;61.18;102579.51;108810;1257;75484;-82
2023/05/09 01:38:55;;;;;;;;;;;;;;;4.67;61.33;102578.61;108803;1259;125256;-81
2023/05/09 01:41:22;;;;;;;;;;;;;;;4.64;61.33;102580.85;108679;1257;70933;-81
2023/05/09 01:43:49;;;;;;;;;;;;;;;4.63;61.31;102579.68;108425;1256;124504;-81
2023/05/09 01:46:16;;;;;;;;;;;;;;;4.61;61.50;102578.99;108712;1257;60180;-82
2023/05/09 01:48:43;;;;;;;;;;;;;;;4.59;61.45;102581.48;108948;1255;75485;-81
2023/05/09 01:51:11;;;;;;;;;;;;;;;4.56;61.63;102578.31;108686;1256;125878;-82
2023/05/09 01:53:38;;;;;;;;;;;;;;;4.56;61.58;102581.95;108768;1257;73141;-81
2023/05/09 01:56:05;;;;;;;;;;;;;;;4.54;61.67;102581.27;108648;1256;124880;-82
2023/05/09 01:58:32;;;;;;;;;;;;;;;4.53;61.79;102582.55;108767;1256;60194;-82
2023/05/09 02:00:59;;;;;;;;;;;;;;;4.51;61.80;102584.98;108806;1256;75991;-81
2023/05/09 02:03:26;;;;;;;;;;;;;;;4.48;61.82;102585.33;108920;1259;66131;-82
2023/05/09 02:05:53;;;;;;;;;;;;;;;4.47;61.94;102585.23;108737;1259;72692;-82
2023/05/09 02:08:20;;;;;;;;;;;;;;;4.45;62.02;102584.91;108658;1257;125309;-81
2023/05/09 02:10:48;;;;;;;;;;;;;;;4.43;62.08;102582.81;108818;1255;60235;-81
2023/05/09 02:13:15;;;;;;;;;;;;;;;4.41;62.15;102583.87;108590;1257;125987;-81
2023/05/09 02:15:42;;;;;;;;;;;;;;;4.39;62.32;102587.88;108842;1257;67268;-81
2023/05/09 02:18:09;;;;;;;;;;;;;;;4.37;62.57;102585.27;108687;1257;73284;-82
2023/05/09 02:20:36;;;;;;;;;;;;;;;4.36;62.58;102583.45;108578;1255;124628;-82
2023/05/09 02:23:03;;;;;;;;;;;;;;;4.33;62.56;102583.61;108882;1259;60653;-82
2023/05/09 02:25:30;;;;;;;;;;;;;;;4.29;62.61;102585.17;108858;1257;124418;-82
2023/05/09 02:27:58;;;;;;;;;;;;;;;4.24;62.69;102584.29;108778;1257;68139;-82
2023/05/09 02:30:25;;;;;;;;;;;;;;;4.19;62.74;102586.81;108685;1259;73440;-82
2023/05/09 02:32:59;;;;;;;;;;;;;;;4.16;62.89;102594.23;108615;1257;126038;-83
2023/05/09 02:35:26;;;;;;;;;;;;;;;4.15;63.08;102593.92;108791;1256;60758;-83
2023/05/09 02:37:53;;;;;;;;;;;;;;;4.12;63.17;102596.16;108663;1256;125421;-83
2023/05/09 02:40:20;;;;;;;;;;;;;;;4.08;63.15;102594.98;108778;1257;65925;-83
2023/05/09 02:42:47;;;;;;;;;;;;;;;4.06;63.38;102596.26;108833;1257;72849;-83
2023/05/09 02:45:14;;;;;;;;;;;;;;;4.05;63.41;102595.92;108741;1256;124558;-83
2023/05/09 02:47:41;;;;;;;;;;;;;;;4.02;63.36;102595.73;108925;1256;60361;-83
2023/05/09 02:50:08;;;;;;;;;;;;;;;4.01;63.66;102594.97;108751;1257;126126;-82
2023/05/09 02:52:35;;;;;;;;;;;;;;;4.00;63.57;102600.46;108814;1256;66523;-83
2023/05/09 02:55:02;;;;;;;;;;;;;;;3.96;63.71;102596.98;108837;1255;124594;-82
2023/05/09 02:57:29;;;;;;;;;;;;;;;3.94;63.76;102600.45;108735;1257;60255;-83
2023/05/09 02:59:56;;;;;;;;;;;;;;;3.92;63.91;102598.75;108791;1255;60469;-84
2023/05/09 03:02:23;;;;;;;;;;;;;;;3.92;63.88;102602.89;108766;1257;125325;-83
2023/05/09 03:04:50;;;;;;;;;;;;;;;3.94;64.10;102603.70;108966;1257;65521;-83
2023/05/09 03:07:17;;;;;;;;;;;;;;;3.96;64.01;102603.04;108773;1256;124766;-83
2023/05/09 03:09:44;;;;;;;;;;;;;;;3.99;64.18;102603.50;109042;1256;60034;-83
2023/05/09 03:12:11;;;;;;;;;;;;;;;4.04;64.28;102603.38;108992;1256;60661;-83
2023/05/09 03:14:38;;;;;;;;;;;;;;;4.10;64.25;102602.11;108703;1257;125555;-82
2023/05/09 03:17:05;;;;;;;;;;;;;;;4.17;64.40;102601.92;108805;1257;70405;-82
2023/05/09 03:19:32;;;;;;;;;;;;;;;4.24;64.38;102604.95;108812;1256;124373;-82
2023/05/09 03:21:59;;;;;;;;;;;;;;;4.31;64.27;102604.11;108990;1255;60815;-83
2023/05/09 03:24:29;;;;;;;;;;;;;;;4.39;64.49;102604.77;109019;1257;60178;-83
2023/05/09 03:26:56;;;;;;;;;;;;;;;4.49;64.50;102604.34;108675;1261;126981;-82
2023/05/09 03:29:23;;;;;;;;;;;;;;;4.63;64.43;102608.38;108739;1257;66641;-83
2023/05/09 03:31:50;;;;;;;;;;;;;;;4.76;64.36;102610.63;108716;1261;126432;-83
2023/05/09 03:34:16;;;;;;;;;;;;;;;4.92;64.34;102609.63;108803;1257;60256;-89
2023/05/09 03:36:43;;;;;;;;;;;;;;;5.21;64.57;102612.33;108849;1257;60135;-90
2023/05/09 03:39:10;;;;;;;;;;;;;;;6.08;65.42;102608.87;108790;1255;125058;-90
2023/05/09 03:41:37;;;;;;;;;;;;;;;7.45;65.52;102611.00;108825;1257;67594;-90
2023/05/09 03:44:04;;;;;;;;;;;;;;;9.02;64.77;102609.86;108847;1259;125050;-91
2023/05/09 03:46:31;;;;;;;;;;;;;;;10.50;63.37;102605.33;108719;1260;60200;-83
2023/05/09 03:48:58;;;;;;;;;;;;;;;11.84;61.46;102600.34;108864;1256;60632;-84
2023/05/09 03:51:25;;;;;;;;;;;;;;;13.03;59.69;102593.44;108565;1255;124275;-81
2023/05/09 03:53:52;;;;;;;;;;;;;;;14.22;58.05;102587.52;108685;1255;65739;-81
2023/05/09 03:56:19;;;;;;;;;;;;;;;15.25;56.10;102589.81;108593;1257;125257;-81
2023/05/09 03:58:46;;;;;;;;;;;;;;;16.22;54.53;102587.55;108812;1257;60201;-81
2023/05/09 04:01:13;;;;;;;;;;;;;;;17.23;53.10;102587.50;108698;1257;125826;-81
2023/05/09 04:03:40;;;;;;;;;;;;;;;18.18;51.34;102585.79;108747;1256;75558;-81
2023/05/09 04:06:07;;;;;;;;;;;;;;;19.01;49.89;102585.95;108797;1257;66850;-81
2023/05/09 04:08:34;;;;;;;;;;;;;;;19.78;48.17;102585.04;108685;1255;125015;-81
2023/05/09 04:11:01;;;;;;;;;;;;;;;20.47;47.11;102585.52;108970;1257;59933;-80
2023/05/09 04:13:29;;;;;;;;;;;;;;;21.32;45.76;102586.54;108712;1255;126576;-80
2023/05/09 04:15:56;;;;;;;;;;;;;;;22.06;44.62;102582.69;108823;1257;73958;-81
2023/05/09 04:18:23;;;;;;;;;;;;;;;22.79;43.34;102584.16;108731;1256;67540;-81
2023/05/09 04:20:50;;;;;;;;;;;;;;;23.50;42.04;102588.09;108658;1255;124847;-81
2023/05/09 04:23:17;;;;;;;;;;;;;;;24.10;41.07;102590.40;108947;1256;59934;-81
2023/05/09 04:25:44;;;;;;;;;;;;;;;24.71;39.95;102592.56;108848;1257;125466;-81
2023/05/09 04:28:11;;;;;;;;;;;;;;;25.23;38.94;102590.12;108783;1257;74249;-86
2023/05/09 04:30:38;;;;;;;;;;;;;;;25.77;38.12;102587.39;108773;1257;66576;-89
2023/05/09 04:33:05;;;;;;;;;;;;;;;26.30;37.06;102591.34;108564;1256;125578;-86
2023/05/09 04:35:31;;;;;;;;;;;;;;;26.75;36.20;102590.27;108709;1256;60206;-85
2023/05/09 04:37:58;;;;;;;;;;;;;;;27.20;35.26;102590.91;108868;1257;126128;-87
2023/05/09 04:40:25;;;;;;;;;;;;;;;27.65;34.78;102589.30;108766;1262;75302;-86
2023/05/09 04:42:52;;;;;;;;;;;;;;;28.11;33.94;102587.95;108777;1256;67725;-84
2023/05/09 04:45:19;;;;;;;;;;;;;;;28.55;33.15;102582.94;108752;1257;125480;-81
2023/05/09 04:47:46;;;;;;;;;;;;;;;28.96;32.40;102586.00;108969;1257;60120;-82
2023/05/09 04:50:13;;;;;;;;;;;;;;;29.28;31.66;102584.36;108680;1257;125259;-82
2023/05/09 04:52:40;;;;;;;;;;;;;;;29.57;30.97;102582.40;108978;1257;65541;-85
2023/05/09 04:55:07;;;;;;;;;;;;;;;29.92;30.57;102585.84;108714;1255;125263;-86
2023/05/09 04:57:34;;;;;;;;;;;;;;;30.42;30.16;102581.73;108848;1257;63828;-86
2023/05/09 05:00:01;;;;;;;;;;;;;;;30.90;29.55;102583.75;109006;1257;60266;-86
2023/05/09 05:02:28;;;;;;;;;;;;;;;31.37;29.04;102585.69;108803;1259;125190;-86
2023/05/09 05:04:55;;;;;;;;;;;;;;;31.80;28.41;102584.76;108883;1256;75658;-86
2023/05/09 05:07:22;;;;;;;;;;;;;;;32.10;28.00;102582.29;108758;1257;125126;-82
2023/05/09 05:09:49;;;;;;;;;;;;;;;32.54;27.57;102580.29;108843;1257;64554;-82
2023/05/09 05:12:16;;;;;;;;;;;;;;;32.98;27.13;102580.75;108780;1256;60171;-82
2023/05/09 05:14:43;;;;;;;;;;;;;;;33.32;26.45;102581.00;108749;1256;124634;-82
2023/05/09 05:17:09;;;;;;;;;;;;;;;33.41;25.86;102580.82;108891;1256;66889;-82
2023/05/09 05:19:36;;;;;;;;;;;;;;;33.58;25.58;102579.01;108702;1257;124859;-82
2023/05/09 05:22:03;;;;;;;;;;;;;;;33.94;25.66;102582.73;108760;1257;62496;-82
2023/05/09 05:24:30;;;;;;;;;;;;;;;34.22;25.12;102582.93;108809;1256;60165;-82
2023/05/09 05:26:57;;;;;;;;;;;;;;;34.31;24.84;102584.38;108666;1256;126932;-82
2023/05/09 05:29:24;;;;;;;;;;;;;;;34.10;24.32;102583.66;108853;1256;66870;-82
2023/05/09 05:31:51;;;;;;;;;;;;;;;33.19;23.72;102576.38;108729;1256;124950;-82
2023/05/09 05:34:18;;;;;;;;;;;;;;;31.16;23.59;102577.16;108737;1262;64979;-81
2023/05/09 05:36:45;;;;;;;;;;;;;;;28.86;23.95;102581.23;108754;1257;60716;-81
2023/05/09 05:39:12;;;;;;;;;;;;;;;26.59;24.78;102582.31;108787;1257;125285;-82
2023/05/09 05:41:39;;;;;;;;;;;;;;;24.82;25.86;102583.66;108870;1271;76035;-82
2023/05/09 05:44:06;;;;;;;;;;;;;;;23.28;26.97;102585.52;108829;1257;124673;-81
2023/05/09 05:46:33;;;;;;;;;;;;;;;21.96;27.83;102583.33;108897;1256;72660;-82
2023/05/09 05:48:59;;;;;;;;;;;;;;;20.91;28.74;102586.08;108922;1257;60109;-81
2023/05/09 05:51:26;;;;;;;;;;;;;;;20.11;29.58;102589.46;108959;1257;60243;-82
2023/05/09 05:53:53;;;;;;;;;;;;;;;19.36;30.17;102583.95;108796;1256;74184;-81
2023/05/09 05:56:21;;;;;;;;;;;;;;;18.70;30.94;102588.70;108681;1256;125178;-81
2023/05/09 05:58:48;;;;;;;;;;;;;;;18.14;31.59;102588.90;108827;1256;71215;-81
2023/05/09 06:01:15;;;;;;;;;;;;;;;17.65;32.27;102587.16;108801;1257;126611;-81
2023/05/09 06:03:42;;;;;;;;;;;;;;;17.29;33.08;102591.19;108796;1256;60179;-81
2023/05/09 06:06:09;;;;;;;;;;;;;;;17.00;33.63;102589.34;108785;1257;75945;-81
2023/05/09 06:08:36;;;;;;;;;;;;;;;16.71;34.23;102589.38;108657;1256;125133;-81
2023/05/09 06:11:04;;;;;;;;;;;;;;;16.46;34.81;102585.98;108877;1256;71105;-81
2023/05/09 06:13:31;;;;;;;;;;;;;;;16.15;35.04;102587.51;108664;1256;125780;-81
2023/05/09 06:15:58;;;;;;;;;;;;;;;15.93;35.85;102586.29;108797;1257;60045;-81
2023/05/09 06:18:25;;;;;;;;;;;;;;;15.78;36.26;102584.74;108817;1257;74332;-81
2023/05/09 06:20:52;;;;;;;;;;;;;;;15.64;36.64;102579.11;108876;1257;124669;-81
2023/05/09 06:23:21;;;;;;;;;;;;;;;15.53;37.09;102582.45;108933;1256;70421;-82
2023/05/09 06:25:48;;;;;;;;;;;;;;;15.47;37.09;102581.54;108762;1257;126229;-81
2023/05/09 06:28:15;;;;;;;;;;;;;;;15.40;37.24;102581.30;108847;1259;60603;-81
2023/05/09 06:30:42;;;;;;;;;;;;;;;15.35;37.65;102575.98;108845;1259;74222;-81
2023/05/09 06:33:08;;;;;;;;;;;;;;;15.30;37.86;102573.35;108659;1257;126426;-81
2023/05/09 06:35:35;;;;;;;;;;;;;;;15.23;38.21;102573.29;108815;1256;71218;-81
2023/05/09 06:38:02;;;;;;;;;;;;;;;15.16;38.37;102570.05;108691;1262;124493;-81
2023/05/09 06:40:29;;;;;;;;;;;;;;;15.15;38.53;102570.52;108714;1256;60275;-81
2023/05/09 06:42:56;;;;;;;;;;;;;;;15.13;38.74;102570.83;108822;1256;74855;-81
2023/05/09 06:45:23;;;;;;;;;;;;;;;15.09;38.63;102574.91;108776;1259;124686;-81
2023/05/09 06:47:50;;;;;;;;;;;;;;;15.00;38.81;102577.42;108772;1257;72672;-82
2023/05/09 06:50:17;;;;;;;;;;;;;;;14.97;39.12;102573.24;108785;1262;124721;-81
2023/05/09 06:52:44;;;;;;;;;;;;;;;14.93;39.35;102572.05;108797;1256;60161;-81
2023/05/09 06:55:11;;;;;;;;;;;;;;;14.89;39.59;102567.33;108762;1271;125169;-81
2023/05/09 06:57:38;;;;;;;;;;;;;;;14.88;39.76;102567.60;108870;1259;65870;-81
2023/05/09 07:00:06;;;;;;;;;;;;;;;14.87;39.86;102564.58;108791;1257;73087;-81
2023/05/09 07:02:33;;;;;;;;;;;;;;;14.89;39.97;102565.20;108618;1256;125911;-81
2023/05/09 07:05:00;;;;;;;;;;;;;;;14.90;39.64;102564.72;108879;1261;60260;-81
2023/05/09 07:07:27;;;;;;;;;;;;;;;14.93;39.61;102567.10;108790;1259;125191;-82
2023/05/09 07:09:53;;;;;;;;;;;;;;;14.97;39.52;102557.52;108819;1256;65078;-81
2023/05/09 07:12:20;;;;;;;;;;;;;;;15.03;39.79;102558.08;108888;1256;73212;-81
2023/05/09 07:14:47;;;;;;;;;;;;;;;15.10;39.82;102554.27;108624;1272;126472;-81
2023/05/09 07:17:14;;;;;;;;;;;;;;;15.17;39.81;102550.80;108765;1256;60606;-81
2023/05/09 07:19:41;;;;;;;;;;;;;;;15.22;39.55;102552.91;108671;1257;125338;-81
2023/05/09 07:22:08;;;;;;;;;;;;;;;15.23;39.11;102548.35;108843;1256;67798;-81
2023/05/09 07:24:35;;;;;;;;;;;;;;;15.26;39.20;102547.04;108687;1257;71368;-81
2023/05/09 07:27:02;;;;;;;;;;;;;;;15.32;38.88;102548.86;108732;1256;125288;-82
2023/05/09 07:29:29;;;;;;;;;;;;;;;15.38;38.56;102547.45;108773;1257;60207;-81
2023/05/09 07:31:56;;;;;;;;;;;;;;;15.45;38.10;102539.71;108814;1257;125125;-82
2023/05/09 07:34:24;;;;;;;;;;;;;;;15.49;38.24;102538.61;108926;1257;66840;-81
2023/05/09 07:36:51;;;;;;;;;;;;;;;15.55;38.34;102535.63;108793;1257;73759;-82
2023/05/09 07:39:18;;;;;;;;;;;;;;;15.62;38.09;102534.09;108723;1257;125344;-81
2023/05/09 07:41:44;;;;;;;;;;;;;;;15.68;38.06;102538.17;108792;1257;60234;-81
2023/05/09 07:44:11;;;;;;;;;;;;;;;15.72;37.84;102533.00;108563;1262;125675;-81
2023/05/09 07:46:40;;;;;;;;;;;;;;;15.75;37.94;102529.05;108858;1257;66911;-81
2023/05/09 07:49:07;;;;;;;;;;;;;;;15.77;37.75;102527.53;108827;1257;124116;-82
2023/05/09 07:51:34;;;;;;;;;;;;;;;15.81;38.15;102528.54;108830;1257;59896;-82
2023/05/09 07:54:01;;;;;;;;;;;;;;;15.87;37.91;102526.97;108852;1257;60194;-82
2023/05/09 07:56:28;;;;;;;;;;;;;;;15.90;37.67;102525.82;108748;1257;124573;-82
2023/05/09 07:58:55;;;;;;;;;;;;;;;15.94;37.79;102521.33;108942;1257;66377;-82
2023/05/09 08:01:22;;;;;;;;;;;;;;;15.98;37.86;102518.27;108746;1257;124752;-82
2023/05/09 08:03:49;;;;;;;;;;;;;;;16.04;37.64;102516.15;108806;1257;60156;-82
2023/05/09 08:06:16;;;;;;;;;;;;;;;16.09;37.59;102508.52;108806;1257;60692;-82
2023/05/09 08:08:42;;;;;;;;;;;;;;;16.14;37.48;102508.30;108681;1257;125191;-82
2023/05/09 08:11:09;;;;;;;;;;;;;;;16.19;37.44;102508.09;108905;1257;66865;-82
2023/05/09 08:13:36;;;;;;;;;;;;;;;16.21;37.43;102499.84;108768;1257;125199;-82
2023/05/09 08:16:03;;;;;;;;;;;;;;;16.26;37.29;102504.61;108960;1257;59942;-82
2023/05/09 08:18:30;;;;;;;;;;;;;;;16.30;37.03;102500.66;108931;1257;60767;-82
2023/05/09 08:20:58;;;;;;;;;;;;;;;16.32;36.87;102497.86;108715;1257;125055;-82
2023/05/09 08:23:25;;;;;;;;;;;;;;;16.30;36.61;102499.39;108836;1257;65877;-82
2023/05/09 08:25:55;;;;;;;;;;;;;;;16.31;36.90;102494.30;108660;1257;124427;-82
2023/05/09 08:28:23;;;;;;;;;;;;;;;16.37;36.99;102495.16;108908;1256;60246;-82
2023/05/09 08:30:50;;;;;;;;;;;;;;;16.42;36.86;102493.55;108947;1257;60532;-82
2023/05/09 08:33:17;;;;;;;;;;;;;;;16.43;36.63;102484.89;108720;1257;124324;-82
2023/05/09 08:35:44;;;;;;;;;;;;;;;16.42;36.54;102486.48;108829;1257;66968;-82
2023/05/09 08:38:11;;;;;;;;;;;;;;;16.46;36.28;102482.15;108778;1257;125620;-82
2023/05/09 08:40:39;;;;;;;;;;;;;;;16.50;35.68;102478.88;108920;1257;60184;-82
2023/05/09 08:43:06;;;;;;;;;;;;;;;16.51;35.46;102475.91;108678;1256;124979;-82
2023/05/09 08:45:53;;;;;;;;;;;;;;;16.54;35.49;102469.59;108735;1256;75477;-82
2023/05/09 08:48:20;;;;;;;;;;;;;;;16.56;35.56;102468.42;108982;1256;65262;-82
2023/05/09 08:50:47;;;;;;;;;;;;;;;16.57;35.23;102467.72;108829;1272;125430;-82
2023/05/09 08:53:14;;;;;;;;;;;;;;;16.59;35.00;102467.97;108895;1257;59979;-82
2023/05/09 08:55:41;;;;;;;;;;;;;;;16.61;35.03;102467.84;108793;1257;125862;-82
2023/05/09 08:58:10;;;;;;;;;;;;;;;16.61;34.98;102467.48;108734;1262;76214;-82
2023/05/09 09:00:39;;;;;;;;;;;;;;;16.62;34.99;102458.14;108772;1257;66637;-82
2023/05/09 09:03:06;;;;;;;;;;;;;;;16.65;34.84;102457.86;108661;1257;125096;-82
2023/05/09 09:05:36;;;;;;;;;;;;;;;16.67;34.59;102456.85;108784;1262;59916;-81
2023/05/09 09:08:04;;;;;;;;;;;;;;;16.71;34.71;102461.93;108641;1261;124632;-82
2023/05/09 09:10:31;;;;;;;;;;;;;;;16.73;34.66;102458.95;108720;1257;75151;-82
2023/05/09 09:12:59;;;;;;;;;;;;;;;16.74;34.60;102454.89;108772;1257;66579;-82
2023/05/09 09:15:30;;;;;;;;;;;;;;;16.77;34.63;102444.35;108495;1257;125895;-82
2023/05/09 09:17:57;;;;;;;;;;;;;;;16.82;34.70;102446.26;108726;1257;60006;-82
2023/05/09 09:20:25;;;;;;;;;;;;;;;16.86;34.63;102443.03;108700;1257;125811;-82
2023/05/09 09:22:54;;;;;;;;;;;;;;;16.88;34.47;102442.20;108783;1272;75815;-82
2023/05/09 09:25:21;;;;;;;;;;;;;;;16.92;34.63;102443.88;108731;1257;125734;-82
2023/05/09 09:27:48;;;;;;;;;;;;;;;16.94;34.55;102446.23;108841;1257;71008;-82
2023/05/09 09:30:22;;;;;;;;;;;;;;;16.98;34.45;102449.20;108719;1256;60117;-83
2023/05/09 09:32:49;;;;;;;;;;;;;;;17.00;34.37;102439.47;108634;1256;124725;-83
2023/05/09 09:35:16;;;;;;;;;;;;;;;17.01;34.41;102436.84;108863;1257;76038;-82
2023/05/09 09:37:43;;;;;;;;;;;;;;;17.04;34.58;102439.07;108750;1257;125122;-83
2023/05/09 09:40:10;;;;;;;;;;;;;;;17.12;34.83;102431.61;108722;1257;73945;-82
2023/05/09 09:42:44;;;;;;;;;;;;;;;17.22;34.76;102430.10;108826;1262;60161;-82
2023/05/09 09:45:12;;;;;;;;;;;;;;;17.28;34.37;102426.33;108738;1257;125782;-82
2023/05/09 09:47:39;;;;;;;;;;;;;;;17.31;34.48;102422.67;108791;1257;74870;-83
2023/05/09 09:50:11;;;;;;;;;;;;;;;17.34;34.50;102421.87;108711;1257;125121;-83
2023/05/09 09:52:41;;;;;;;;;;;;;;;17.36;34.52;102416.41;108773;1257;73203;-82
2023/05/09 09:55:08;;;;;;;;;;;;;;;17.39;34.87;102416.67;108775;1257;125688;-82
2023/05/09 09:57:36;;;;;;;;;;;;;;;17.44;34.89;102408.62;108888;1262;60388;-82
2023/05/09 10:00:06;;;;;;;;;;;;;;;17.51;34.96;102407.36;108904;1257;75391;-82
2023/05/09 10:02:33;;;;;;;;;;;;;;;17.58;35.09;102403.08;108605;1256;125094;-82
2023/05/09 10:05:06;;;;;;;;;;;;;;;17.65;35.07;102402.70;108855;1257;72734;-82
2023/05/09 10:07:36;;;;;;;;;;;;;;;17.71;34.75;102404.24;108674;1256;125109;-82
2023/05/09 10:10:05;;;;;;;;;;;;;;;17.75;34.48;102408.41;108783;1257;60143;-83
2023/05/09 10:12:33;;;;;;;;;;;;;;;17.81;34.22;102408.91;108686;1257;75484;-83
2023/05/09 10:15:00;;;;;;;;;;;;;;;17.87;34.21;102406.58;108646;1257;126332;-83
2023/05/09 10:17:27;;;;;;;;;;;;;;;17.89;33.99;102396.48;108789;1256;72681;-82
2023/05/09 10:19:54;;;;;;;;;;;;;;;17.84;33.51;102394.09;108717;1261;126045;-83
2023/05/09 10:22:21;;;;;;;;;;;;;;;17.77;33.48;102393.36;108797;1257;59881;-83
2023/05/09 10:25:21;;;;;;;;;;;;;;;17.73;33.52;102387.77;108862;1257;75560;-83
2023/05/09 10:27:48;;;;;;;;;;;;;;;17.74;33.71;102387.99;108499;1263;65839;-83
2023/05/09 10:30:18;;;;;;;;;;;;;;;17.73;33.50;102380.86;108349;1263;72699;-83
2023/05/09 10:32:51;;;;;;;;;;;;;;;17.70;33.44;102374.58;108269;1263;124493;-82
2023/05/09 10:35:18;;;;;;;;;;;;;;;17.70;33.57;102367.66;108536;1263;60246;-82
2023/05/09 10:37:45;;;;;;;;;;;;;;;17.74;33.63;102363.66;108350;1264;125112;-82
2023/05/09 10:40:14;;;;;;;;;;;;;;;17.78;33.50;102361.27;108563;1264;65744;-82
2023/05/09 10:42:41;;;;;;;;;;;;;;;17.79;33.20;102354.33;108371;1262;72996;-83
2023/05/09 10:45:09;;;;;;;;;;;;;;;17.77;33.21;102353.42;108391;1266;126437;-83
2023/05/09 10:47:36;;;;;;;;;;;;;;;17.77;33.12;102352.90;108411;1263;60385;-80
2023/05/09 10:50:03;;;;;;;;;;;;;;;17.76;33.14;102352.34;108375;1262;125737;-83
2023/05/09 10:52:32;;;;;;;;;;;;;;;17.76;33.11;102349.68;108502;1263;66515;-82
2023/05/09 10:55:02;;;;;;;;;;;;;;;17.75;33.12;102345.20;108491;1264;73249;-82
2023/05/09 10:57:29;;;;;;;;;;;;;;;17.78;33.33;102347.23;108373;1264;124446;-82
2023/05/09 10:59:57;;;;;;;;;;;;;;;17.83;33.24;102344.17;108498;1264;60142;-83
2023/05/09 11:02:31;;;;;;;;;;;;;;;17.86;32.87;102337.48;108387;1266;125340;-83
2023/05/09 11:05:17;;;;;;;;;;;;;;;17.87;32.92;102343.19;108890;1257;68275;-82
2023/05/09 11:07:44;;;;;;;;;;;;;;;17.88;32.74;102339.11;108622;1262;124524;-82
2023/05/09 11:10:15;;;;;;;;;;;;;;;17.88;32.78;102332.55;108760;1257;61049;-82
2023/05/09 11:12:55;;;;;;;;;;;;;;;17.89;32.72;102326.71;108781;1262;59911;-83
2023/05/09 11:15:22;;;;;;;;;;;;;;;17.85;32.48;102322.36;108817;1260;125179;-82
2023/05/09 11:18:09;;;;;;;;;;;;;;;17.84;32.57;102314.70;108753;1257;67097;-82
2023/05/09 11:20:45;;;;;;;;;;;;;;;17.86;32.41;102310.67;108784;1260;125433;-82
2023/05/09 11:23:16;;;;;;;;;;;;;;;17.87;32.39;102306.06;108800;1256;60144;-83
2023/05/09 11:25:44;;;;;;;;;;;;;;;17.93;32.57;102302.27;108770;1256;125071;-83
2023/05/09 11:28:12;;;;;;;;;;;;;;;17.98;32.70;102303.09;108766;1263;75463;-83
2023/05/09 11:30:42;;;;;;;;;;;;;;;18.03;32.75;102298.58;108773;1260;67592;-83
2023/05/09 11:33:22;;;;;;;;;;;;;;;18.08;32.38;102301.86;108741;1257;125123;-83
2023/05/09 11:36:08;;;;;;;;;;;;;;;18.10;32.40;102293.54;108678;1263;60678;-83
2023/05/09 11:38:41;;;;;;;;;;;;;;;18.12;32.35;102296.07;108861;1260;124611;-83
2023/05/09 11:41:08;;;;;;;;;;;;;;;18.12;32.14;102290.37;108861;1257;75222;-83
2023/05/09 11:43:35;;;;;;;;;;;;;;;18.11;32.08;102286.09;108784;1257;126197;-83
2023/05/09 11:46:02;;;;;;;;;;;;;;;18.13;32.05;102285.59;108829;1258;71344;-83
2023/05/09 11:48:29;;;;;;;;;;;;;;;18.14;32.09;102282.23;108922;1260;60071;-83
2023/05/09 11:50:57;;;;;;;;;;;;;;;18.18;32.09;102275.20;108769;1258;125616;-83
2023/05/09 11:53:23;;;;;;;;;;;;;;;18.22;31.94;102269.95;108942;1260;74835;-82
2023/05/09 11:55:50;;;;;;;;;;;;;;;18.22;31.94;102261.23;108887;1260;124759;-83
2023/05/09 11:58:17;;;;;;;;;;;;;;;18.25;31.90;102263.25;108761;1258;72506;-83
2023/05/09 12:00:44;;;;;;;;;;;;;;;18.27;31.83;102260.27;108730;1261;59866;-83
2023/05/09 12:03:11;;;;;;;;;;;;;;;18.29;31.67;102247.86;108720;1256;124567;-83
2023/05/09 12:05:38;;;;;;;;;;;;;;;18.30;31.41;102241.65;108744;1256;76668;-83
2023/05/09 12:08:06;;;;;;;;;;;;;;;18.28;31.41;102245.34;108583;1260;124484;-83
2023/05/09 12:10:36;;;;;;;;;;;;;;;18.26;31.37;102242.30;108640;1262;73169;-83
2023/05/09 12:19:51;;;;;;;;;;;;;;;18.32;31.42;102237.43;108509;1254;78621;-84
2023/05/09 12:22:20;;;;;;;;;;;;;;;18.33;31.29;102230.33;107483;1263;73605;-83
2023/05/09 12:24:48;;;;;;;;;;;;;;;18.33;31.13;102226.60;107532;1259;62044;-83
2023/05/09 12:27:18;;;;;;;;;;;;;;;18.33;31.23;102221.09;107589;1257;124737;-84
2023/05/09 12:29:57;;;;;;;;;;;;;;;18.36;31.23;102227.17;107781;1263;75673;-84
2023/05/09 12:32:33;;;;;;;;;;;;;;;18.38;31.31;102226.67;107605;1257;125326;-83
2023/05/09 12:35:00;;;;;;;;;;;;;;;18.39;31.23;102222.98;107906;1256;72767;-84
2023/05/09 12:37:28;;;;;;;;;;;;;;;18.39;30.90;102217.27;107872;1257;125243;-84